Saint-Timothee, Canada
Current Conditions -  °F | °C
As of 8:25 PM on Monday 20 Oct 2014 (Local Time) from CYUL Reporting Station
Rain Showers Rain Showers  
Wind Chill: 45°   Ceiling: 3500
Heat Index: 45°   Visibility: 15mi
Dew Point: 37°   Wind: 3mph
Humidity: 76%   Direction: 100°E
Pressure: 29.95"   Gusts: NA
Location:  45.28°N, 74.05°W
Report Text: CYUL 210025Z 10003KT 15SM -SHRA BKN035 OVC050 07/03 A2995 RMK SC6SC2 SLP143
Loading
Personal Weather Stations






























Interactive Weather Map
Tropical Storm Tracking
New forecast layout! Learn more

10-Day Weather Forecast

Advertisements
Track Severe Weather on mobile